Time;durP1;ratioP1;P1;durP2;ratioP2;P2;SDS_P1;SDS_P2;PMS_P1;PMS_P2;Temp;Humidity;BMP_temperature;BMP_pressure;BME280_temperature;BME280_humidity;BME280_pressure;Samples;Min_cycle;Max_cycle;Signal;HPM_P1;HPM_P2
2023/10/10 00:01:00;;;;;;;16.23;6.97;;;14.00;99.90;;;;;;4956587;28;20592;-78
2023/10/10 00:03:34;;;;;;;13.45;6.97;;;14.10;99.90;;;;;;4957189;28;20081;-79
2023/10/10 00:05:59;;;;;;;11.25;6.53;;;14.10;99.90;;;;;;4956171;28;21036;-82
2023/10/10 00:08:33;;;;;;;12.02;6.63;;;14.10;99.90;;;;;;4956477;28;20161;-81
2023/10/10 00:10:59;;;;;;;12.55;6.13;;;14.00;99.90;;;;;;4956212;28;20128;-79
2023/10/10 00:13:26;;;;;;;18.67;7.90;;;14.20;99.90;;;;;;4956690;28;20069;-80
2023/10/10 00:15:55;;;;;;;14.77;6.55;;;14.10;99.90;;;;;;4964282;28;20109;-79
2023/10/10 00:18:29;;;;;;;13.00;7.45;;;14.20;99.90;;;;;;4957541;28;20062;-80
2023/10/10 00:21:08;;;;;;;17.60;7.32;;;14.30;99.90;;;;;;4955378;28;20058;-80
2023/10/10 00:23:42;;;;;;;11.82;6.60;;;14.20;99.90;;;;;;4972215;28;20275;-80
2023/10/10 00:26:12;;;;;;;15.30;7.22;;;14.20;99.90;;;;;;4965999;28;20046;-79
2023/10/10 00:28:41;;;;;;;14.63;7.22;;;14.20;99.90;;;;;;4993290;28;20116;-80
2023/10/10 00:31:15;;;;;;;14.43;5.80;;;14.20;99.90;;;;;;4993308;28;20053;-80
2023/10/10 00:33:41;;;;;;;14.40;8.75;;;14.20;99.90;;;;;;4993348;28;20065;-79
2023/10/10 00:36:20;;;;;;;13.60;6.45;;;14.20;99.90;;;;;;4993071;28;20062;-80
2023/10/10 00:39:06;;;;;;;14.32;7.30;;;14.10;99.90;;;;;;4991345;28;20049;-79
2023/10/10 00:41:56;;;;;;;14.30;6.30;;;14.20;99.90;;;;;;4993474;28;20053;-79
2023/10/10 00:44:22;;;;;;;12.35;7.05;;;14.20;99.90;;;;;;4986886;28;20081;-80
2023/10/10 00:46:58;;;;;;;13.73;6.45;;;14.20;99.90;;;;;;4994316;28;20563;-80
2023/10/10 00:49:26;;;;;;;13.05;6.20;;;14.20;99.90;;;;;;4993859;28;20058;-80
2023/10/10 00:51:54;;;;;;;13.43;6.65;;;14.30;99.90;;;;;;4993880;28;20108;-79
2023/10/10 00:54:26;;;;;;;12.45;6.93;;;14.50;99.90;;;;;;4994147;28;20046;-79
2023/10/10 00:56:55;;;;;;;16.10;6.13;;;14.10;99.90;;;;;;4994265;28;20049;-80
2023/10/10 00:59:34;;;;;;;24.50;8.50;;;14.30;99.90;;;;;;4994049;28;20056;-79
2023/10/10 01:02:04;;;;;;;18.88;7.95;;;14.40;99.90;;;;;;4994070;28;20539;-79
2023/10/10 01:04:39;;;;;;;14.50;7.32;;;14.40;99.90;;;;;;4990362;28;20045;-79
2023/10/10 01:07:08;;;;;;;16.35;8.25;;;14.40;99.90;;;;;;4996555;28;20577;-79
2023/10/10 01:09:41;;;;;;;17.48;7.70;;;14.40;99.90;;;;;;4998067;28;20107;-79
2023/10/10 01:12:07;;;;;;;20.10;8.45;;;14.40;99.90;;;;;;4997907;28;21677;-79
2023/10/10 01:14:38;;;;;;;18.23;8.15;;;14.40;99.90;;;;;;4998101;28;20061;-79
2023/10/10 01:17:05;;;;;;;22.00;8.88;;;14.40;99.90;;;;;;4997631;28;20050;-80
2023/10/10 01:19:34;;;;;;;24.98;9.32;;;14.40;99.90;;;;;;4997718;28;20049;-80
2023/10/10 01:22:03;;;;;;;14.00;8.00;;;14.50;99.90;;;;;;4997811;28;20049;-79
2023/10/10 01:24:40;;;;;;;16.90;8.90;;;14.40;99.90;;;;;;4998201;28;20057;-79
2023/10/10 01:27:21;;;;;;;19.50;8.50;;;14.50;99.90;;;;;;4997548;28;20947;-79
2023/10/10 01:32:38;;;;;;;22.73;8.52;;;14.50;99.90;;;;;;4998198;28;20085;-79
2023/10/10 01:35:15;;;;;;;14.32;8.52;;;14.50;99.90;;;;;;4981407;28;20052;-81
2023/10/10 01:37:41;;;;;;;13.38;8.10;;;14.50;99.90;;;;;;5009332;28;20473;-79
2023/10/10 01:40:19;;;;;;;14.75;8.55;;;14.50;99.90;;;;;;4981519;28;20054;-77
2023/10/10 01:42:51;;;;;;;12.40;7.13;;;14.50;99.90;;;;;;4997920;28;20053;-80
2023/10/10 01:45:19;;;;;;;20.00;9.18;;;14.50;99.90;;;;;;4997778;28;20054;-79
2023/10/10 01:47:56;;;;;;;16.63;8.70;;;14.50;99.90;;;;;;4997125;28;20054;-79
2023/10/10 01:50:31;;;;;;;19.50;8.65;;;14.50;99.90;;;;;;4997890;28;20050;-78
2023/10/10 01:53:10;;;;;;;21.25;9.65;;;14.50;99.90;;;;;;4997301;28;20049;-80
2023/10/10 01:55:41;;;;;;;23.42;10.90;;;14.50;99.90;;;;;;4997244;28;20733;-82
2023/10/10 01:58:25;;;;;;;21.55;9.85;;;14.80;99.90;;;;;;5011632;28;20100;-81
2023/10/10 02:00:54;;;;;;;23.73;11.85;;;;;;;;;;4980416;28;20046;-81
2023/10/10 02:03:25;;;;;;;21.42;10.88;;;14.80;99.90;;;;;;4980848;28;20049;-81
2023/10/10 02:05:55;;;;;;;19.47;9.67;;;14.50;99.90;;;;;;4997886;28;20053;-81
2023/10/10 02:08:22;;;;;;;22.38;10.82;;;14.50;99.90;;;;;;4997337;28;20481;-81
2023/10/10 02:10:51;;;;;;;18.00;10.40;;;14.60;99.90;;;;;;4996226;28;20058;-81
2023/10/10 02:13:18;;;;;;;20.88;9.95;;;14.40;99.90;;;;;;4996987;28;20068;-82
2023/10/10 02:15:43;;;;;;;20.38;10.45;;;14.50;99.90;;;;;;4996289;28;20365;-79
2023/10/10 02:18:13;;;;;;;21.50;10.68;;;;;;;;;;4994809;28;20616;-80
2023/10/10 02:25:40;;;;;;;20.30;9.88;;;;;;;;;;4996044;28;20054;-80
2023/10/10 02:28:20;;;;;;;20.48;10.43;;;14.60;99.90;;;;;;4996162;28;20258;-82
2023/10/10 02:30:52;;;;;;;20.13;10.15;;;17.60;99.90;;;;;;4995972;28;20081;-81
2023/10/10 02:33:48;;;;;;;24.83;10.82;;;14.60;99.90;;;;;;4995715;28;20061;-81
2023/10/10 02:36:30;;;;;;;18.98;10.50;;;14.60;99.90;;;;;;4968069;28;20050;-82
2023/10/10 02:39:11;;;;;;;19.50;10.98;;;14.50;99.90;;;;;;4995848;28;20145;-83
2023/10/10 02:41:48;;;;;;;26.10;13.02;;;14.60;99.90;;;;;;4995428;28;20127;-80
2023/10/10 02:44:46;;;;;;;18.75;11.38;;;14.60;99.90;;;;;;4978073;28;20057;-82
2023/10/10 02:47:30;;;;;;;21.60;10.65;;;14.60;99.90;;;;;;4994102;28;20054;-81
2023/10/10 02:50:01;;;;;;;24.00;11.20;;;14.60;99.90;;;;;;4994672;28;20045;-81
2023/10/10 02:52:28;;;;;;;32.88;11.52;;;;;;;;;;4978383;28;20050;-81
2023/10/10 02:54:55;;;;;;;23.60;11.80;;;;;;;;;;4977938;28;20132;-81
2023/10/10 02:59:51;;;;;;;21.20;11.32;;;14.60;99.90;;;;;;4973537;28;20608;-82
2023/10/10 03:02:19;;;;;;;17.80;10.05;;;14.50;99.90;;;;;;4974433;28;20068;-81
2023/10/10 03:05:06;;;;;;;18.42;11.40;;;14.60;99.90;;;;;;4958206;28;20174;-82
2023/10/10 03:07:32;;;;;;;22.63;12.18;;;14.50;99.90;;;;;;4981290;28;20053;-82
2023/10/10 03:12:37;;;;;;;19.75;11.45;;;14.60;99.90;;;;;;4975583;28;20057;-82
2023/10/10 03:15:14;;;;;;;22.58;11.00;;;;;;;;;;4986318;28;20050;-81
2023/10/10 03:28:20;;;;;;;21.67;11.13;;;14.60;99.90;;;;;;4981798;28;20045;-81
2023/10/10 03:30:51;;;;;;;20.70;11.23;;;14.00;99.90;;;;;;4959938;28;20054;-81
2023/10/10 03:33:35;;;;;;;16.98;10.55;;;14.60;99.90;;;;;;4966208;28;20054;-80
2023/10/10 05:25:44;;;;;;;41.25;17.45;;;13.90;99.90;;;;;;4977392;28;20054;-80
2023/10/10 05:28:10;;;;;;;44.53;18.13;;;13.90;99.90;;;;;;4976716;28;20129;-81
2023/10/10 05:30:45;;;;;;;38.75;18.05;;;13.80;99.90;;;;;;4983891;28;20549;-80
2023/10/10 05:33:12;;;;;;;40.53;18.40;;;13.80;99.90;;;;;;4981392;28;20137;-80
2023/10/10 05:35:40;;;;;;;55.00;18.92;;;13.80;99.90;;;;;;5002278;28;20050;-81
2023/10/10 05:38:07;;;;;;;48.63;19.45;;;13.80;99.90;;;;;;4979448;28;20159;-81
2023/10/10 05:40:33;;;;;;;43.00;19.65;;;13.80;99.90;;;;;;4963823;28;20050;-81
2023/10/10 05:43:00;;;;;;;57.92;20.08;;;13.80;99.90;;;;;;4962589;28;20137;-81
2023/10/10 05:45:26;;;;;;;41.65;19.27;;;13.80;99.90;;;;;;4978537;28;20632;-80
2023/10/10 05:47:52;;;;;;;46.22;21.50;;;;;;;;;;4979709;28;20119;-80
2023/10/10 05:50:18;;;;;;;49.92;21.10;;;13.90;99.90;;;;;;4979176;28;20080;-82
2023/10/10 05:52:48;;;;;;;54.53;22.38;;;13.90;99.90;;;;;;4978190;28;20053;-81
2023/10/10 05:55:15;;;;;;;52.38;21.70;;;13.90;99.90;;;;;;4978648;28;20051;-82
2023/10/10 05:58:02;;;;;;;47.05;21.52;;;14.10;99.90;;;;;;4989518;28;20508;-79
2023/10/10 06:00:32;;;;;;;49.88;21.70;;;13.90;99.90;;;;;;4960344;28;20388;-82
2023/10/10 06:02:58;;;;;;;47.08;23.60;;;13.90;99.90;;;;;;4979883;28;20058;-82
2023/10/10 06:05:24;;;;;;;55.67;24.48;;;13.90;99.90;;;;;;4963187;28;20145;-81
2023/10/10 06:07:49;;;;;;;50.00;23.45;;;14.00;99.90;;;;;;4976066;28;20047;-80
2023/10/10 06:10:16;;;;;;;61.60;23.00;;;13.90;99.90;;;;;;4959337;28;20071;-80
2023/10/10 06:12:45;;;;;;;48.33;23.60;;;13.90;99.90;;;;;;4959622;28;20050;-82
2023/10/10 06:15:18;;;;;;;45.35;23.20;;;13.90;99.90;;;;;;4942337;28;20070;-80
2023/10/10 06:18:08;;;;;;;59.00;25.02;;;13.80;99.90;;;;;;4951220;28;20050;-80
2023/10/10 06:20:40;;;;;;;53.20;23.38;;;13.90;99.90;;;;;;4942725;28;20085;-80
2023/10/10 06:23:08;;;;;;;54.95;23.85;;;13.90;99.90;;;;;;4958057;28;20062;-80
2023/10/10 06:25:35;;;;;;;45.22;21.92;;;13.90;99.90;;;;;;4957161;28;20093;-79
2023/10/10 06:28:07;;;;;;;59.55;24.90;;;14.00;99.90;;;;;;4950594;28;20073;-81
2023/10/10 06:30:53;;;;;;;60.50;22.98;;;14.00;99.90;;;;;;4947240;28;20058;-83
2023/10/10 06:33:27;;;;;;;55.28;23.85;;;13.90;99.90;;;;;;4985521;28;20065;-85
2023/10/10 06:41:36;;;;;;;47.83;22.67;;;14.00;99.90;;;;;;4975276;28;20046;-81
2023/10/10 06:44:04;;;;;;;56.42;25.63;;;14.10;99.90;;;;;;4976740;28;20282;-83
2023/10/10 06:46:32;;;;;;;54.25;24.80;;;14.10;99.90;;;;;;4976085;28;20136;-83
2023/10/10 06:49:04;;;;;;;51.17;25.23;;;14.20;99.90;;;;;;4978270;28;20568;-72
2023/10/10 06:51:30;;;;;;;54.78;27.13;;;14.30;99.90;;;;;;4991506;28;20549;-82
2023/10/10 06:53:56;;;;;;;54.30;26.20;;;14.30;99.90;;;;;;4973909;28;20046;-82
2023/10/10 06:56:44;;;;;;;62.95;27.48;;;14.40;99.90;;;;;;4976120;28;20049;-82
2023/10/10 06:59:16;;;;;;;48.78;25.83;;;14.50;99.90;;;;;;4990159;28;20472;-78
2023/10/10 07:01:47;;;;;;;50.38;26.52;;;14.60;99.90;;;;;;4976548;28;20052;-82
2023/10/10 07:04:13;;;;;;;44.23;26.43;;;14.70;99.90;;;;;;4974067;28;20041;-79
2023/10/10 07:06:44;;;;;;;43.25;24.52;;;14.80;99.90;;;;;;4958836;28;20580;-74
2023/10/10 07:09:27;;;;;;;46.22;25.55;;;14.80;99.90;;;;;;4972100;28;20054;-79
2023/10/10 07:12:09;;;;;;;50.83;26.73;;;14.90;99.90;;;;;;4975246;28;20046;-82
2023/10/10 07:14:45;;;;;;;43.53;26.30;;;14.90;99.90;;;;;;4975907;28;20545;-79
2023/10/10 07:17:13;;;;;;;49.78;27.88;;;15.00;99.90;;;;;;4987274;28;20062;-77
2023/10/10 07:21:04;;;;;;;41.33;25.05;;;15.00;99.90;;;;;;4978233;28;20371;-80
2023/10/10 07:22:41;;;;;;;41.70;26.20;;;15.10;99.90;;;;;;4974077;28;20058;-81
2023/10/10 07:25:18;;;;;;;43.38;26.60;;;15.20;99.90;;;;;;4970701;28;20473;-78
2023/10/10 07:27:44;;;;;;;44.17;26.88;;;15.30;99.90;;;;;;4974466;28;20050;-81
2023/10/10 07:30:19;;;;;;;44.70;26.75;;;15.30;99.90;;;;;;4974188;28;20585;-75
2023/10/10 07:32:49;;;;;;;41.47;26.40;;;15.50;99.90;;;;;;4974602;28;20485;-82
2023/10/10 07:35:16;;;;;;;39.83;26.65;;;13.90;99.90;;;;;;4975105;28;20054;-79
2023/10/10 07:37:45;;;;;;;44.03;27.13;;;14.30;99.90;;;;;;4977800;28;20512;-77
2023/10/10 07:42:50;;;;;;;47.28;29.35;;;15.90;99.90;;;;;;4981735;28;20057;-80
2023/10/10 07:45:26;;;;;;;44.72;29.15;;;16.10;99.90;;;;;;4970517;28;20060;-81
2023/10/10 07:50:35;;;;;;;47.33;29.48;;;16.10;99.90;;;;;;4975752;28;20123;-80
2023/10/10 07:53:12;;;;;;;49.50;30.25;;;14.40;99.90;;;;;;4974617;28;20046;-75
2023/10/10 07:58:17;;;;;;;52.00;32.22;;;16.30;99.90;;;;;;4974220;28;20137;-82
2023/10/10 08:00:44;;;;;;;52.15;32.25;;;16.50;99.90;;;;;;4974099;28;20091;-82
2023/10/10 08:03:20;;;;;;;50.25;30.73;;;16.60;99.90;;;;;;4959988;28;20050;-84
2023/10/10 08:05:52;;;;;;;49.13;31.88;;;16.70;99.90;;;;;;4976249;28;20172;-74
2023/10/10 08:08:18;;;;;;;;;;;16.70;99.90;;;;;;4980781;28;20056;-82
2023/10/10 08:10:49;;;;;;;48.88;32.67;;;16.80;99.90;;;;;;4975739;28;19922;-81
2023/10/10 08:13:16;;;;;;;55.28;36.17;;;16.90;99.90;;;;;;4963921;28;20144;-81
2023/10/10 08:15:56;;;;;;;50.95;34.33;;;16.90;99.90;;;;;;4974189;28;20054;-80
2023/10/10 08:21:13;;;;;;;59.35;36.80;;;17.10;99.90;;;;;;4973849;28;20046;-79
2023/10/10 08:23:46;;;;;;;57.97;37.65;;;17.20;99.90;;;;;;4975180;28;20056;-80
2023/10/10 08:26:19;;;;;;;60.42;37.83;;;17.30;99.90;;;;;;4976332;28;20050;-80
2023/10/10 08:28:46;;;;;;;51.25;36.20;;;17.60;99.90;;;;;;4974336;28;20050;-83
2023/10/10 08:31:13;;;;;;;55.80;37.65;;;17.80;99.90;;;;;;4975204;28;20058;-82
2023/10/10 08:33:44;;;;;;;51.63;36.72;;;18.00;99.90;;;;;;4972958;28;20155;-81
2023/10/10 08:36:12;;;;;;;53.63;39.00;;;18.20;99.90;;;;;;4972446;28;20050;-77
2023/10/10 08:38:42;;;;;;;53.50;36.00;;;18.40;99.90;;;;;;4956926;28;20136;-82
2023/10/10 08:41:08;;;;;;;53.25;38.33;;;18.50;99.90;;;;;;4978025;28;20096;-81
2023/10/10 08:43:39;;;;;;;50.83;35.83;;;18.50;99.90;;;;;;4973770;28;20046;-82
2023/10/10 08:46:29;;;;;;;49.33;36.92;;;18.60;99.90;;;;;;4992080;28;20042;-81
2023/10/10 08:48:58;;;;;;;57.85;37.47;;;18.70;99.90;;;;;;4933430;28;20102;-78
2023/10/10 08:51:34;;;;;;;45.92;33.65;;;18.70;99.90;;;;;;4936120;28;20706;-79
2023/10/10 08:54:16;;;;;;;;;;;18.90;99.90;;;;;;4936156;28;20047;-80
2023/10/10 08:56:53;;;;;;;50.78;34.17;;;19.00;99.90;;;;;;4937521;28;19965;-81
2023/10/10 08:59:18;;;;;;;41.67;32.40;;;19.00;99.90;;;;;;4936762;28;20391;-77
2023/10/10 09:01:45;;;;;;;40.03;32.35;;;19.00;99.90;;;;;;4936608;28;20122;-79
2023/10/10 09:04:19;;;;;;;41.15;32.72;;;19.00;99.90;;;;;;4941389;28;20176;-79
2023/10/10 09:09:35;;;;;;;45.83;33.88;;;19.00;99.90;;;;;;4936754;28;20055;-80
2023/10/10 09:12:12;;;;;;;44.40;32.75;;;19.10;99.90;;;;;;4936280;28;20051;-79
2023/10/10 09:15:16;;;;;;;47.58;36.03;;;19.20;99.90;;;;;;4921794;28;20145;-79
2023/10/10 09:17:42;;;;;;;47.05;33.22;;;19.20;99.90;;;;;;4915987;29;20462;-77
2023/10/10 09:20:22;;;;;;;47.90;35.20;;;19.20;99.90;;;;;;4911361;28;20065;-80
2023/10/10 09:22:52;;;;;;;45.63;34.13;;;19.10;99.90;;;;;;4935980;28;20063;-82
2023/10/10 09:25:48;;;;;;;44.17;34.33;;;19.10;99.90;;;;;;4935923;28;20050;-82
2023/10/10 09:28:16;;;;;;;49.50;35.30;;;19.00;99.90;;;;;;4939995;28;20059;-79
2023/10/10 09:30:58;;;;;;;51.30;38.15;;;19.00;99.90;;;;;;4957689;28;20066;-80
2023/10/10 09:33:33;;;;;;;50.83;36.50;;;19.00;99.90;;;;;;4939305;28;20089;-81
2023/10/10 09:36:09;;;;;;;58.88;39.40;;;19.00;99.90;;;;;;4964024;28;20057;-81
2023/10/10 09:38:48;;;;;;;58.97;40.63;;;19.10;99.90;;;;;;4956637;28;20489;-78
2023/10/10 09:41:37;;;;;;;54.13;37.70;;;19.20;99.90;;;;;;4952378;28;20135;-80
2023/10/10 09:49:45;;;;;;;59.08;39.47;;;19.60;99.90;;;;;;4986077;28;20604;-80
2023/10/10 09:55:07;;;;;;;58.13;39.28;;;19.80;99.90;;;;;;4987509;28;20054;-79
2023/10/10 09:57:40;;;;;;;57.90;39.83;;;19.80;99.90;;;;;;4957920;28;20418;-78
2023/10/10 10:00:16;;;;;;;57.20;39.53;;;19.80;99.90;;;;;;4975650;28;20066;-78
2023/10/10 10:02:43;;;;;;;54.92;38.92;;;19.90;99.90;;;;;;4991135;28;20042;-80
2023/10/10 10:05:17;;;;;;;55.08;39.28;;;19.90;99.90;;;;;;4975068;28;20607;-80
2023/10/10 10:08:14;;;;;;;58.35;39.13;;;19.90;99.90;;;;;;4991615;28;20509;-79
2023/10/10 10:11:11;;;;;;;54.38;38.53;;;19.90;99.90;;;;;;4954574;28;20750;-79
2023/10/10 10:14:00;;;;;;;51.50;37.22;;;19.90;99.90;;;;;;4973554;28;20050;-79
2023/10/10 10:16:46;;;;;;;54.53;38.25;;;19.90;99.90;;;;;;4973936;28;20046;-78
2023/10/10 10:19:17;;;;;;;53.22;38.42;;;19.90;99.90;;;;;;4972026;28;20093;-79
2023/10/10 10:21:52;;;;;;;52.28;38.83;;;20.00;99.90;;;;;;4974722;28;20046;-78
2023/10/10 10:24:29;;;;;;;56.45;38.95;;;20.00;99.90;;;;;;4975056;28;20049;-78
2023/10/10 10:27:31;;;;;;;52.35;37.53;;;19.90;99.90;;;;;;4992540;28;20152;-78
2023/10/10 10:32:54;;;;;;;50.83;38.38;;;19.90;99.90;;;;;;4979066;28;20069;-79
2023/10/10 10:35:36;;;;;;;51.97;38.47;;;19.90;99.90;;;;;;4994445;28;20776;-78
2023/10/10 10:38:07;;;;;;;52.13;37.35;;;19.90;99.90;;;;;;4974642;28;20292;-76
2023/10/10 10:41:17;;;;;;;48.88;36.90;;;19.90;99.90;;;;;;4969771;28;20058;-78
2023/10/10 10:43:34;;;;;;;45.92;34.00;;;20.00;99.90;;;;;;4986599;28;20063;-78
2023/10/10 10:46:14;;;;;;;47.63;34.67;;;20.00;99.90;;;;;;4975154;28;20050;-79
2023/10/10 10:48:47;;;;;;;48.47;34.70;;;20.10;99.90;;;;;;4974960;28;20054;-78
2023/10/10 10:57:04;;;;;;;48.05;34.92;;;20.20;99.90;;;;;;4974406;28;20061;-78
2023/10/10 10:59:36;;;;;;;46.90;34.28;;;20.20;99.90;;;;;;4985940;28;20066;-76
2023/10/10 11:02:14;;;;;;;47.85;33.40;;;19.70;99.90;;;;;;4984136;28;20046;-76
2023/10/10 11:04:49;;;;;;;48.42;34.25;;;20.30;99.90;;;;;;4992258;28;20051;-76
2023/10/10 11:07:27;;;;;;;47.47;33.70;;;20.30;99.90;;;;;;4970206;28;20053;-78
2023/10/10 11:09:54;;;;;;;43.00;31.38;;;20.30;99.90;;;;;;4969045;28;20145;-78
2023/10/10 11:12:31;;;;;;;39.13;30.15;;;20.40;99.90;;;;;;4977485;28;20062;-79
2023/10/10 11:14:58;;;;;;;38.65;29.23;;;20.40;99.90;;;;;;4976785;28;20706;-75
2023/10/10 11:17:24;;;;;;;43.13;30.13;;;20.40;99.90;;;;;;4979554;28;20052;-77
2023/10/10 11:19:56;;;;;;;35.92;28.13;;;20.40;99.90;;;;;;4985958;28;20054;-79
2023/10/10 11:22:40;;;;;;;43.45;29.65;;;20.40;99.90;;;;;;4981406;28;20124;-76
2023/10/10 11:25:11;;;;;;;42.33;29.95;;;20.30;99.90;;;;;;4961698;28;20058;-74
2023/10/10 11:27:43;;;;;;;47.15;30.40;;;20.20;99.90;;;;;;4974628;28;20108;-74
2023/10/10 11:30:24;;;;;;;39.75;28.10;;;20.20;99.90;;;;;;4978419;28;20137;-77
2023/10/10 11:33:00;;;;;;;35.75;26.65;;;20.20;99.90;;;;;;4989614;28;20340;-74
2023/10/10 11:35:26;;;;;;;37.25;25.88;;;20.20;99.90;;;;;;4974884;28;20482;-75
2023/10/10 11:38:09;;;;;;;34.53;24.98;;;20.20;99.90;;;;;;4629253;28;10000443;-76
2023/10/10 11:40:36;;;;;;;37.22;25.58;;;20.30;99.90;;;;;;4965704;28;20053;-74
2023/10/10 11:43:12;;;;;;;34.33;25.05;;;20.40;99.90;;;;;;4972989;28;20050;-77
2023/10/10 11:45:40;;;;;;;33.63;22.88;;;20.50;99.90;;;;;;4971846;28;20054;-82
2023/10/10 11:48:15;;;;;;;31.85;20.75;;;20.70;99.90;;;;;;4975423;28;20704;-75
2023/10/10 11:50:50;;;;;;;31.08;21.60;;;20.90;99.90;;;;;;4975045;28;20057;-78
2023/10/10 11:53:24;;;;;;;33.70;21.98;;;20.90;99.90;;;;;;4987117;28;20058;-76
2023/10/10 11:56:04;;;;;;;30.67;21.27;;;21.00;99.90;;;;;;4975737;28;20052;-74
2023/10/10 11:58:39;;;;;;;30.95;21.77;;;20.90;99.90;;;;;;4975208;28;20058;-75
2023/10/10 12:01:08;;;;;;;30.17;19.70;;;20.90;99.90;;;;;;4972223;28;20046;-77
2023/10/10 12:06:24;;;;;;;30.52;20.92;;;20.60;99.90;;;;;;4989575;28;20443;-74
2023/10/10 12:08:50;;;;;;;32.28;21.15;;;20.50;99.90;;;;;;4989285;28;20149;-81
2023/10/10 12:11:20;;;;;;;28.67;20.27;;;20.50;99.90;;;;;;4959697;28;20045;-75
2023/10/10 12:13:47;;;;;;;32.47;21.13;;;20.50;99.90;;;;;;4989032;28;20046;-77
2023/10/10 12:16:13;;;;;;;32.85;22.00;;;20.50;99.90;;;;;;4958025;28;20053;-78
2023/10/10 12:18:52;;;;;;;31.50;22.02;;;20.50;99.90;;;;;;4990502;28;20058;-74
2023/10/10 12:21:20;;;;;;;30.85;21.00;;;20.40;99.90;;;;;;4974878;28;20765;-75
2023/10/10 12:23:50;;;;;;;30.17;22.13;;;20.40;99.90;;;;;;4978508;28;20145;-72
2023/10/10 12:26:26;;;;;;;32.47;21.75;;;20.30;99.90;;;;;;4973910;28;20082;-74
2023/10/10 12:28:55;;;;;;;30.30;21.27;;;20.40;99.90;;;;;;4990712;28;20058;-77
2023/10/10 12:31:22;;;;;;;29.25;19.85;;;20.40;99.90;;;;;;4974117;28;20089;-76
2023/10/10 12:33:48;;;;;;;32.35;20.52;;;20.50;99.90;;;;;;4979158;28;20042;-75
2023/10/10 12:36:18;;;;;;;29.27;21.00;;;20.60;99.90;;;;;;4979240;28;20050;-76
2023/10/10 12:38:48;;;;;;;27.23;20.17;;;20.70;99.90;;;;;;4978781;28;20059;-75
2023/10/10 12:41:20;;;;;;;34.72;20.52;;;20.80;99.90;;;;;;4976320;28;20160;-77
2023/10/10 12:43:48;;;;;;;;;;;20.90;99.90;;;;;;4959684;28;20057;-72
2023/10/10 12:46:20;;;;;;;28.15;19.83;;;20.90;99.90;;;;;;4977546;28;19925;-74
2023/10/10 12:48:53;;;;;;;27.33;20.15;;;20.90;99.90;;;;;;4981770;28;20058;-79
2023/10/10 12:51:23;;;;;;;28.73;19.58;;;20.90;99.90;;;;;;4977337;28;20054;-78
2023/10/10 12:53:59;;;;;;;27.70;18.33;;;20.90;99.90;;;;;;4958936;28;20054;-76
2023/10/10 12:56:26;;;;;;;27.40;17.80;;;20.90;99.90;;;;;;4987386;28;20061;-78
2023/10/10 12:58:51;;;;;;;26.70;17.98;;;20.80;99.90;;;;;;4969907;28;20811;-75
2023/10/10 13:01:25;;;;;;;23.92;17.00;;;20.90;99.90;;;;;;5000558;28;20050;-74
2023/10/10 13:03:52;;;;;;;24.15;16.98;;;20.80;99.90;;;;;;4975541;28;20054;-74
2023/10/10 13:06:18;;;;;;;22.77;16.95;;;20.80;99.90;;;;;;4979705;28;20058;-76
2023/10/10 13:09:19;;;;;;;26.33;17.10;;;20.80;99.90;;;;;;4976295;28;20163;-72
2023/10/10 13:11:43;;;;;;;24.08;16.45;;;20.70;99.90;;;;;;4981515;28;20058;-74
2023/10/10 13:14:14;;;;;;;25.45;16.10;;;20.60;99.90;;;;;;4973094;28;20089;-76
2023/10/10 13:19:11;;;;;;;23.58;16.73;;;20.60;99.90;;;;;;4978606;28;20050;-75
2023/10/10 13:21:42;;;;;;;24.00;16.13;;;20.50;99.90;;;;;;4983759;28;20057;-73
2023/10/10 13:24:13;;;;;;;22.08;15.73;;;20.50;99.90;;;;;;4977928;28;20050;-77
2023/10/10 13:26:41;;;;;;;26.65;15.77;;;17.70;99.90;;;;;;4978447;28;20050;-73
2023/10/10 13:29:07;;;;;;;19.88;15.18;;;20.40;99.90;;;;;;4971060;28;20058;-75
2023/10/10 13:31:33;;;;;;;21.05;15.45;;;20.30;99.90;;;;;;4976389;28;20065;-77
2023/10/10 13:34:00;;;;;;;23.70;16.10;;;20.30;99.90;;;;;;4976061;28;20133;-76
2023/10/10 13:36:26;;;;;;;21.25;15.65;;;20.40;99.90;;;;;;4975525;28;20322;-74
2023/10/10 13:38:59;;;;;;;25.20;16.30;;;20.40;99.90;;;;;;4976054;28;20088;-74
2023/10/10 13:41:29;;;;;;;20.23;15.55;;;20.40;99.90;;;;;;4960972;28;20140;-74
2023/10/10 13:44:02;;;;;;;24.70;15.40;;;20.30;99.90;;;;;;4977241;28;20050;-75
2023/10/10 13:46:34;;;;;;;22.48;14.38;;;20.30;99.90;;;;;;4988608;28;20078;-77
2023/10/10 13:49:03;;;;;;;26.25;13.77;;;20.20;99.90;;;;;;4983287;28;20078;-75
2023/10/10 13:51:37;;;;;;;22.75;14.55;;;20.10;99.90;;;;;;4975663;28;20112;-73
2023/10/10 13:54:03;;;;;;;21.63;14.35;;;20.10;99.90;;;;;;4975090;28;20062;-74
2023/10/10 13:56:30;;;;;;;20.48;15.27;;;20.10;99.90;;;;;;4976206;28;20831;-74
2023/10/10 13:58:57;;;;;;;19.35;14.73;;;20.10;99.90;;;;;;4976048;28;20081;-73
2023/10/10 14:01:29;;;;;;;22.73;14.60;;;20.10;99.90;;;;;;4959428;28;20050;-76
2023/10/10 14:04:01;;;;;;;20.48;13.40;;;20.20;99.90;;;;;;4960593;28;20066;-78
2023/10/10 14:06:27;;;;;;;21.83;13.93;;;20.20;99.90;;;;;;4993090;28;20054;-73
2023/10/10 14:08:57;;;;;;;21.17;14.57;;;20.30;99.90;;;;;;4976632;28;20061;-76
2023/10/10 14:11:23;;;;;;;22.33;15.25;;;20.30;99.90;;;;;;4993450;28;20066;-75
2023/10/10 14:13:51;;;;;;;24.58;16.45;;;20.40;99.90;;;;;;4979761;28;20037;-75
2023/10/10 14:16:17;;;;;;;27.52;18.42;;;20.50;99.90;;;;;;4985406;28;20587;-71
2023/10/10 14:18:49;;;;;;;27.00;19.17;;;20.50;99.90;;;;;;4976894;28;20050;-75
2023/10/10 14:21:29;;;;;;;25.65;17.95;;;20.50;99.90;;;;;;4975177;28;20195;-73
2023/10/10 14:24:07;;;;;;;25.40;18.20;;;20.50;99.90;;;;;;4975108;28;20473;-75
2023/10/10 14:26:36;;;;;;;22.83;18.88;;;20.50;99.90;;;;;;4959157;28;20132;-73
2023/10/10 14:29:06;;;;;;;28.27;18.33;;;20.50;99.90;;;;;;4979726;28;20125;-75
2023/10/10 14:31:42;;;;;;;28.10;19.95;;;20.50;99.90;;;;;;4976931;28;20072;-76
2023/10/10 14:34:11;;;;;;;31.85;19.70;;;20.40;99.90;;;;;;4976214;28;20090;-75
2023/10/10 14:36:39;;;;;;;27.33;20.42;;;20.30;99.90;;;;;;4982884;28;20042;-79
2023/10/10 14:39:08;;;;;;;26.92;19.40;;;20.30;99.90;;;;;;4976003;28;20089;-72
2023/10/10 14:41:35;;;;;;;28.40;20.20;;;20.30;99.90;;;;;;4990997;28;20116;-74
2023/10/10 14:44:03;;;;;;;29.52;19.55;;;20.20;99.90;;;;;;4974667;28;20062;-74
2023/10/10 14:46:33;;;;;;;31.95;20.20;;;20.10;99.90;;;;;;4991309;28;20065;-74
2023/10/10 14:49:16;;;;;;;25.80;19.13;;;20.10;99.90;;;;;;4973935;28;20707;-75
2023/10/10 14:51:48;;;;;;;25.52;18.10;;;20.00;99.90;;;;;;4978161;28;20078;-76
2023/10/10 14:54:19;;;;;;;26.48;19.10;;;20.00;99.90;;;;;;4975947;28;20400;-74
2023/10/10 14:56:51;;;;;;;29.67;19.53;;;19.90;99.90;;;;;;4973306;28;20061;-74
2023/10/10 14:59:19;;;;;;;28.33;19.83;;;19.80;99.90;;;;;;4991153;28;20066;-77
2023/10/10 15:01:48;;;;;;;28.33;18.90;;;19.80;99.90;;;;;;4974118;28;20059;-76
2023/10/10 15:04:18;;;;;;;26.65;20.33;;;19.70;99.90;;;;;;4990353;28;20615;-72
2023/10/10 15:06:45;;;;;;;27.10;19.45;;;19.70;99.90;;;;;;4958139;28;20476;-72
2023/10/10 15:09:14;;;;;;;29.52;19.60;;;19.70;99.90;;;;;;4995425;28;20053;-74
2023/10/10 15:11:43;;;;;;;26.48;19.13;;;19.60;99.90;;;;;;4974986;28;20081;-76
2023/10/10 15:14:10;;;;;;;24.38;17.42;;;19.50;99.90;;;;;;4973003;28;20061;-74
2023/10/10 15:16:37;;;;;;;23.27;16.73;;;19.50;99.90;;;;;;4991031;28;20875;-75
2023/10/10 15:19:06;;;;;;;20.63;16.00;;;19.50;99.90;;;;;;4975174;28;20157;-76
2023/10/10 15:21:33;;;;;;;27.52;18.15;;;19.50;99.90;;;;;;4973759;28;20038;-79
2023/10/10 15:24:00;;;;;;;23.50;16.90;;;19.40;99.90;;;;;;4954321;28;20387;-76
2023/10/10 15:26:27;;;;;;;19.40;15.50;;;19.40;99.90;;;;;;4974045;28;20214;-74
2023/10/10 15:28:56;;;;;;;21.23;15.35;;;19.30;99.90;;;;;;4972198;28;20671;-76
2023/10/10 15:31:25;;;;;;;24.13;15.48;;;19.20;99.90;;;;;;4988929;28;20094;-76
2023/10/10 15:33:54;;;;;;;21.33;14.88;;;19.20;99.90;;;;;;4973631;28;20073;-72
2023/10/10 15:36:36;;;;;;;23.23;15.13;;;19.10;99.90;;;;;;4973665;28;20050;-76
2023/10/10 15:39:05;;;;;;;22.13;15.75;;;19.00;99.90;;;;;;4988477;28;20038;-77
2023/10/10 15:41:32;;;;;;;23.05;16.40;;;18.90;99.90;;;;;;4961117;28;20057;-77
2023/10/10 15:44:04;;;;;;;24.33;17.13;;;18.80;99.90;;;;;;4956095;28;20113;-74
2023/10/10 15:46:32;;;;;;;28.35;16.60;;;18.70;99.90;;;;;;4972411;28;20051;-79
2023/10/10 15:48:59;;;;;;;22.48;16.80;;;18.70;99.90;;;;;;4625488;28;10000344;-77
2023/10/10 15:51:26;;;;;;;23.02;15.65;;;18.60;99.90;;;;;;4973027;28;20089;-76